sensor_id;sensor_type;location;lat;lon;timestamp;P1;durP1;ratioP1;P2;durP2;ratioP2
32734;SDS011;19112;51.076;3.706;2023-04-25T00:01:31;30.80;;;7.20;;
32734;SDS011;19112;51.076;3.706;2023-04-25T00:04:00;25.88;;;6.93;;
32734;SDS011;19112;51.076;3.706;2023-04-25T00:06:27;33.35;;;6.57;;
32734;SDS011;19112;51.076;3.706;2023-04-25T00:08:57;34.35;;;7.80;;
32734;SDS011;19112;51.076;3.706;2023-04-25T00:11:23;27.08;;;6.65;;
32734;SDS011;19112;51.076;3.706;2023-04-25T00:13:49;30.88;;;7.05;;
32734;SDS011;19112;51.076;3.706;2023-04-25T00:16:15;28.73;;;6.85;;
32734;SDS011;19112;51.076;3.706;2023-04-25T00:18:42;23.30;;;5.38;;
32734;SDS011;19112;51.076;3.706;2023-04-25T00:21:08;23.80;;;6.05;;
32734;SDS011;19112;51.076;3.706;2023-04-25T00:23:34;21.50;;;6.43;;
32734;SDS011;19112;51.076;3.706;2023-04-25T00:26:01;30.95;;;7.15;;
32734;SDS011;19112;51.076;3.706;2023-04-25T00:28:28;30.38;;;7.22;;
32734;SDS011;19112;51.076;3.706;2023-04-25T00:30:53;29.60;;;6.50;;
32734;SDS011;19112;51.076;3.706;2023-04-25T00:33:19;35.35;;;6.22;;
32734;SDS011;19112;51.076;3.706;2023-04-25T00:35:46;25.48;;;6.80;;
32734;SDS011;19112;51.076;3.706;2023-04-25T00:38:12;24.88;;;4.90;;
32734;SDS011;19112;51.076;3.706;2023-04-25T00:40:37;29.63;;;6.32;;
32734;SDS011;19112;51.076;3.706;2023-04-25T00:43:03;28.95;;;8.75;;
32734;SDS011;19112;51.076;3.706;2023-04-25T00:45:29;28.27;;;6.30;;
32734;SDS011;19112;51.076;3.706;2023-04-25T00:47:55;34.47;;;6.38;;
32734;SDS011;19112;51.076;3.706;2023-04-25T00:50:22;24.50;;;6.18;;
32734;SDS011;19112;51.076;3.706;2023-04-25T00:52:49;21.65;;;5.57;;
32734;SDS011;19112;51.076;3.706;2023-04-25T00:55:15;25.65;;;5.40;;
32734;SDS011;19112;51.076;3.706;2023-04-25T00:57:42;26.48;;;6.18;;
32734;SDS011;19112;51.076;3.706;2023-04-25T01:00:08;23.10;;;5.43;;
32734;SDS011;19112;51.076;3.706;2023-04-25T01:02:36;28.65;;;5.80;;
32734;SDS011;19112;51.076;3.706;2023-04-25T01:05:02;25.90;;;5.55;;
32734;SDS011;19112;51.076;3.706;2023-04-25T01:07:29;21.17;;;5.53;;
32734;SDS011;19112;51.076;3.706;2023-04-25T01:09:55;27.45;;;6.63;;
32734;SDS011;19112;51.076;3.706;2023-04-25T01:12:21;27.65;;;5.65;;
32734;SDS011;19112;51.076;3.706;2023-04-25T01:14:48;24.17;;;5.85;;
32734;SDS011;19112;51.076;3.706;2023-04-25T01:17:14;23.58;;;5.25;;
32734;SDS011;19112;51.076;3.706;2023-04-25T01:19:41;22.05;;;5.20;;
32734;SDS011;19112;51.076;3.706;2023-04-25T01:22:07;26.58;;;6.80;;
32734;SDS011;19112;51.076;3.706;2023-04-25T01:24:35;33.78;;;6.43;;
32734;SDS011;19112;51.076;3.706;2023-04-25T01:27:02;31.83;;;6.07;;
32734;SDS011;19112;51.076;3.706;2023-04-25T01:29:30;36.45;;;6.68;;
32734;SDS011;19112;51.076;3.706;2023-04-25T01:31:57;32.30;;;6.05;;
32734;SDS011;19112;51.076;3.706;2023-04-25T01:34:24;25.75;;;6.18;;
32734;SDS011;19112;51.076;3.706;2023-04-25T01:36:50;27.77;;;6.32;;
32734;SDS011;19112;51.076;3.706;2023-04-25T01:39:17;33.08;;;6.97;;
32734;SDS011;19112;51.076;3.706;2023-04-25T01:41:43;32.90;;;6.50;;
32734;SDS011;19112;51.076;3.706;2023-04-25T01:44:11;26.95;;;6.50;;
32734;SDS011;19112;51.076;3.706;2023-04-25T01:46:37;26.65;;;6.32;;
32734;SDS011;19112;51.076;3.706;2023-04-25T01:49:03;35.70;;;6.22;;
32734;SDS011;19112;51.076;3.706;2023-04-25T01:51:29;26.40;;;6.28;;
32734;SDS011;19112;51.076;3.706;2023-04-25T01:53:56;28.17;;;5.47;;
32734;SDS011;19112;51.076;3.706;2023-04-25T01:56:23;28.52;;;6.53;;
32734;SDS011;19112;51.076;3.706;2023-04-25T01:58:49;28.67;;;6.45;;
32734;SDS011;19112;51.076;3.706;2023-04-25T02:01:15;34.17;;;7.50;;
32734;SDS011;19112;51.076;3.706;2023-04-25T02:03:41;35.95;;;6.63;;
32734;SDS011;19112;51.076;3.706;2023-04-25T02:06:06;33.45;;;6.40;;
32734;SDS011;19112;51.076;3.706;2023-04-25T02:08:32;23.75;;;5.75;;
32734;SDS011;19112;51.076;3.706;2023-04-25T02:10:58;34.83;;;7.28;;
32734;SDS011;19112;51.076;3.706;2023-04-25T02:13:24;26.48;;;6.30;;
32734;SDS011;19112;51.076;3.706;2023-04-25T02:15:50;30.98;;;6.70;;
32734;SDS011;19112;51.076;3.706;2023-04-25T02:18:16;26.27;;;5.45;;
32734;SDS011;19112;51.076;3.706;2023-04-25T02:20:42;28.55;;;6.30;;
32734;SDS011;19112;51.076;3.706;2023-04-25T02:23:09;28.52;;;6.30;;
32734;SDS011;19112;51.076;3.706;2023-04-25T02:25:35;34.10;;;7.10;;
32734;SDS011;19112;51.076;3.706;2023-04-25T02:28:00;37.25;;;6.47;;
32734;SDS011;19112;51.076;3.706;2023-04-25T02:30:26;32.95;;;6.60;;
32734;SDS011;19112;51.076;3.706;2023-04-25T02:32:52;30.30;;;6.47;;
32734;SDS011;19112;51.076;3.706;2023-04-25T02:35:19;29.95;;;6.13;;
32734;SDS011;19112;51.076;3.706;2023-04-25T02:37:44;22.92;;;6.28;;
32734;SDS011;19112;51.076;3.706;2023-04-25T02:40:10;33.08;;;6.28;;
32734;SDS011;19112;51.076;3.706;2023-04-25T02:42:36;28.90;;;5.75;;
32734;SDS011;19112;51.076;3.706;2023-04-25T02:45:02;26.60;;;5.82;;
32734;SDS011;19112;51.076;3.706;2023-04-25T02:47:29;28.52;;;6.05;;
32734;SDS011;19112;51.076;3.706;2023-04-25T02:49:55;30.58;;;6.32;;
32734;SDS011;19112;51.076;3.706;2023-04-25T02:52:21;28.92;;;5.82;;
32734;SDS011;19112;51.076;3.706;2023-04-25T02:54:47;26.65;;;5.93;;
32734;SDS011;19112;51.076;3.706;2023-04-25T02:57:13;30.90;;;5.88;;
32734;SDS011;19112;51.076;3.706;2023-04-25T02:59:39;29.60;;;6.05;;
32734;SDS011;19112;51.076;3.706;2023-04-25T03:05:10;28.25;;;5.93;;
32734;SDS011;19112;51.076;3.706;2023-04-25T03:10:08;27.95;;;5.00;;
32734;SDS011;19112;51.076;3.706;2023-04-25T03:12:34;31.17;;;6.82;;
32734;SDS011;19112;51.076;3.706;2023-04-25T03:15:00;19.40;;;6.07;;
32734;SDS011;19112;51.076;3.706;2023-04-25T03:17:26;20.77;;;5.25;;
32734;SDS011;19112;51.076;3.706;2023-04-25T03:19:52;23.27;;;4.68;;
32734;SDS011;19112;51.076;3.706;2023-04-25T03:22:17;25.00;;;5.78;;
32734;SDS011;19112;51.076;3.706;2023-04-25T03:24:43;24.10;;;5.70;;
32734;SDS011;19112;51.076;3.706;2023-04-25T03:27:09;23.63;;;4.55;;
32734;SDS011;19112;51.076;3.706;2023-04-25T03:29:35;21.15;;;5.45;;
32734;SDS011;19112;51.076;3.706;2023-04-25T03:32:01;19.00;;;4.45;;
32734;SDS011;19112;51.076;3.706;2023-04-25T03:34:27;36.65;;;6.93;;
32734;SDS011;19112;51.076;3.706;2023-04-25T03:36:53;22.63;;;6.55;;
32734;SDS011;19112;51.076;3.706;2023-04-25T03:39:18;26.52;;;5.18;;
32734;SDS011;19112;51.076;3.706;2023-04-25T03:41:44;17.75;;;4.97;;
32734;SDS011;19112;51.076;3.706;2023-04-25T03:44:10;21.80;;;5.07;;
32734;SDS011;19112;51.076;3.706;2023-04-25T03:46:36;17.98;;;5.18;;
32734;SDS011;19112;51.076;3.706;2023-04-25T03:49:02;22.40;;;4.82;;
32734;SDS011;19112;51.076;3.706;2023-04-25T03:51:28;22.48;;;5.18;;
32734;SDS011;19112;51.076;3.706;2023-04-25T03:53:54;22.05;;;4.47;;
32734;SDS011;19112;51.076;3.706;2023-04-25T03:56:19;22.35;;;4.65;;
32734;SDS011;19112;51.076;3.706;2023-04-25T03:58:45;22.38;;;4.53;;
32734;SDS011;19112;51.076;3.706;2023-04-25T04:01:11;23.17;;;4.55;;
32734;SDS011;19112;51.076;3.706;2023-04-25T04:03:37;17.75;;;4.53;;
32734;SDS011;19112;51.076;3.706;2023-04-25T04:06:03;18.15;;;4.85;;
32734;SDS011;19112;51.076;3.706;2023-04-25T04:08:30;19.98;;;5.03;;
32734;SDS011;19112;51.076;3.706;2023-04-25T04:10:57;19.23;;;4.07;;
32734;SDS011;19112;51.076;3.706;2023-04-25T04:13:25;25.63;;;4.68;;
32734;SDS011;19112;51.076;3.706;2023-04-25T04:15:52;26.80;;;5.90;;
32734;SDS011;19112;51.076;3.706;2023-04-25T04:18:18;21.83;;;4.38;;
32734;SDS011;19112;51.076;3.706;2023-04-25T04:20:44;26.55;;;5.15;;
32734;SDS011;19112;51.076;3.706;2023-04-25T04:23:10;15.43;;;4.15;;
32734;SDS011;19112;51.076;3.706;2023-04-25T04:25:36;18.02;;;4.35;;
32734;SDS011;19112;51.076;3.706;2023-04-25T04:28:02;23.48;;;6.30;;
32734;SDS011;19112;51.076;3.706;2023-04-25T04:30:29;21.48;;;4.72;;
32734;SDS011;19112;51.076;3.706;2023-04-25T04:32:56;22.17;;;5.03;;
32734;SDS011;19112;51.076;3.706;2023-04-25T04:35:22;22.35;;;5.00;;
32734;SDS011;19112;51.076;3.706;2023-04-25T04:37:49;25.90;;;6.43;;
32734;SDS011;19112;51.076;3.706;2023-04-25T04:40:15;14.98;;;4.28;;
32734;SDS011;19112;51.076;3.706;2023-04-25T04:42:43;23.65;;;5.15;;
32734;SDS011;19112;51.076;3.706;2023-04-25T04:45:13;19.65;;;5.93;;
32734;SDS011;19112;51.076;3.706;2023-04-25T04:47:39;24.88;;;5.25;;
32734;SDS011;19112;51.076;3.706;2023-04-25T04:50:06;23.58;;;5.20;;
32734;SDS011;19112;51.076;3.706;2023-04-25T04:52:34;23.08;;;5.68;;
32734;SDS011;19112;51.076;3.706;2023-04-25T04:55:04;17.58;;;4.50;;
32734;SDS011;19112;51.076;3.706;2023-04-25T04:57:31;22.88;;;5.80;;
32734;SDS011;19112;51.076;3.706;2023-04-25T04:59:58;23.48;;;5.00;;
32734;SDS011;19112;51.076;3.706;2023-04-25T05:02:24;21.33;;;5.10;;
32734;SDS011;19112;51.076;3.706;2023-04-25T05:04:50;23.90;;;5.28;;
32734;SDS011;19112;51.076;3.706;2023-04-25T05:07:17;20.38;;;5.05;;
32734;SDS011;19112;51.076;3.706;2023-04-25T05:09:43;22.77;;;4.97;;
32734;SDS011;19112;51.076;3.706;2023-04-25T05:12:10;16.92;;;4.53;;
32734;SDS011;19112;51.076;3.706;2023-04-25T05:14:36;25.13;;;5.45;;
32734;SDS011;19112;51.076;3.706;2023-04-25T05:17:01;26.33;;;5.78;;
32734;SDS011;19112;51.076;3.706;2023-04-25T05:19:30;21.38;;;4.90;;
32734;SDS011;19112;51.076;3.706;2023-04-25T05:21:56;28.92;;;5.72;;
32734;SDS011;19112;51.076;3.706;2023-04-25T05:24:22;20.83;;;5.25;;
32734;SDS011;19112;51.076;3.706;2023-04-25T05:26:48;20.23;;;5.32;;
32734;SDS011;19112;51.076;3.706;2023-04-25T05:29:14;22.58;;;5.13;;
32734;SDS011;19112;51.076;3.706;2023-04-25T05:31:40;24.70;;;4.85;;
32734;SDS011;19112;51.076;3.706;2023-04-25T05:34:06;19.13;;;5.00;;
32734;SDS011;19112;51.076;3.706;2023-04-25T05:36:31;27.52;;;5.45;;
32734;SDS011;19112;51.076;3.706;2023-04-25T05:38:57;19.50;;;4.72;;
32734;SDS011;19112;51.076;3.706;2023-04-25T05:41:23;18.05;;;4.90;;
32734;SDS011;19112;51.076;3.706;2023-04-25T05:43:49;20.50;;;5.28;;
32734;SDS011;19112;51.076;3.706;2023-04-25T05:46:15;23.52;;;4.25;;
32734;SDS011;19112;51.076;3.706;2023-04-25T05:48:44;21.25;;;4.40;;
32734;SDS011;19112;51.076;3.706;2023-04-25T05:51:10;24.10;;;5.00;;
32734;SDS011;19112;51.076;3.706;2023-04-25T05:53:36;25.10;;;5.57;;
32734;SDS011;19112;51.076;3.706;2023-04-25T05:56:02;19.92;;;5.50;;
32734;SDS011;19112;51.076;3.706;2023-04-25T05:58:28;23.42;;;5.00;;
32734;SDS011;19112;51.076;3.706;2023-04-25T06:00:55;27.48;;;4.93;;
32734;SDS011;19112;51.076;3.706;2023-04-25T06:03:20;19.25;;;4.68;;
32734;SDS011;19112;51.076;3.706;2023-04-25T06:05:46;22.50;;;4.95;;
32734;SDS011;19112;51.076;3.706;2023-04-25T06:08:12;20.98;;;4.93;;
32734;SDS011;19112;51.076;3.706;2023-04-25T06:10:38;19.13;;;4.65;;
32734;SDS011;19112;51.076;3.706;2023-04-25T06:13:04;20.33;;;4.43;;
32734;SDS011;19112;51.076;3.706;2023-04-25T06:15:30;24.40;;;4.00;;
32734;SDS011;19112;51.076;3.706;2023-04-25T06:17:58;24.77;;;5.43;;
32734;SDS011;19112;51.076;3.706;2023-04-25T06:20:24;19.85;;;4.10;;
32734;SDS011;19112;51.076;3.706;2023-04-25T06:22:50;22.27;;;4.05;;
32734;SDS011;19112;51.076;3.706;2023-04-25T06:25:17;17.40;;;3.65;;
32734;SDS011;19112;51.076;3.706;2023-04-25T06:27:43;19.58;;;3.97;;
32734;SDS011;19112;51.076;3.706;2023-04-25T06:30:09;16.20;;;3.38;;
32734;SDS011;19112;51.076;3.706;2023-04-25T06:32:37;14.35;;;4.30;;
32734;SDS011;19112;51.076;3.706;2023-04-25T06:35:04;19.35;;;4.57;;
32734;SDS011;19112;51.076;3.706;2023-04-25T06:37:31;19.50;;;3.75;;
32734;SDS011;19112;51.076;3.706;2023-04-25T06:39:57;17.58;;;3.30;;
32734;SDS011;19112;51.076;3.706;2023-04-25T06:42:22;21.27;;;3.63;;
32734;SDS011;19112;51.076;3.706;2023-04-25T06:44:48;17.83;;;3.17;;
32734;SDS011;19112;51.076;3.706;2023-04-25T06:47:14;15.00;;;3.03;;
32734;SDS011;19112;51.076;3.706;2023-04-25T06:49:40;19.17;;;3.35;;
32734;SDS011;19112;51.076;3.706;2023-04-25T06:52:07;16.00;;;3.25;;
32734;SDS011;19112;51.076;3.706;2023-04-25T06:54:33;15.45;;;3.17;;
32734;SDS011;19112;51.076;3.706;2023-04-25T06:56:59;16.55;;;2.75;;
32734;SDS011;19112;51.076;3.706;2023-04-25T06:59:26;16.77;;;5.68;;
32734;SDS011;19112;51.076;3.706;2023-04-25T07:01:52;17.95;;;3.00;;
32734;SDS011;19112;51.076;3.706;2023-04-25T07:04:17;19.85;;;3.40;;
32734;SDS011;19112;51.076;3.706;2023-04-25T07:06:43;16.20;;;3.92;;
32734;SDS011;19112;51.076;3.706;2023-04-25T07:09:09;14.20;;;3.55;;
32734;SDS011;19112;51.076;3.706;2023-04-25T07:11:36;21.83;;;3.83;;
32734;SDS011;19112;51.076;3.706;2023-04-25T07:14:02;15.85;;;3.40;;
32734;SDS011;19112;51.076;3.706;2023-04-25T07:16:28;13.02;;;3.08;;
32734;SDS011;19112;51.076;3.706;2023-04-25T07:18:54;13.77;;;3.47;;
32734;SDS011;19112;51.076;3.706;2023-04-25T07:21:20;17.10;;;3.28;;
32734;SDS011;19112;51.076;3.706;2023-04-25T07:23:46;16.55;;;3.03;;
32734;SDS011;19112;51.076;3.706;2023-04-25T07:26:12;16.90;;;2.88;;
32734;SDS011;19112;51.076;3.706;2023-04-25T07:28:38;13.52;;;2.92;;
32734;SDS011;19112;51.076;3.706;2023-04-25T07:31:04;18.17;;;3.55;;
32734;SDS011;19112;51.076;3.706;2023-04-25T07:33:30;19.13;;;3.45;;
32734;SDS011;19112;51.076;3.706;2023-04-25T07:35:56;20.25;;;2.97;;
32734;SDS011;19112;51.076;3.706;2023-04-25T07:38:22;10.30;;;2.25;;
32734;SDS011;19112;51.076;3.706;2023-04-25T07:40:48;12.57;;;3.67;;
32734;SDS011;19112;51.076;3.706;2023-04-25T07:43:14;13.02;;;2.85;;
32734;SDS011;19112;51.076;3.706;2023-04-25T07:45:42;16.58;;;2.83;;
32734;SDS011;19112;51.076;3.706;2023-04-25T07:48:09;10.40;;;2.17;;
32734;SDS011;19112;51.076;3.706;2023-04-25T07:50:35;15.38;;;2.47;;
32734;SDS011;19112;51.076;3.706;2023-04-25T07:53:01;16.25;;;2.50;;
32734;SDS011;19112;51.076;3.706;2023-04-25T07:55:27;23.90;;;3.30;;
32734;SDS011;19112;51.076;3.706;2023-04-25T07:57:53;12.48;;;2.50;;
32734;SDS011;19112;51.076;3.706;2023-04-25T08:00:19;14.43;;;2.60;;
32734;SDS011;19112;51.076;3.706;2023-04-25T08:02:45;15.50;;;2.35;;
32734;SDS011;19112;51.076;3.706;2023-04-25T08:05:11;10.18;;;2.15;;
32734;SDS011;19112;51.076;3.706;2023-04-25T08:07:39;9.90;;;2.22;;
32734;SDS011;19112;51.076;3.706;2023-04-25T08:10:06;12.68;;;4.03;;
32734;SDS011;19112;51.076;3.706;2023-04-25T08:12:33;14.00;;;2.20;;
32734;SDS011;19112;51.076;3.706;2023-04-25T08:14:59;10.15;;;2.05;;
32734;SDS011;19112;51.076;3.706;2023-04-25T08:17:25;12.13;;;2.40;;
32734;SDS011;19112;51.076;3.706;2023-04-25T08:19:51;14.63;;;2.40;;
32734;SDS011;19112;51.076;3.706;2023-04-25T08:22:16;13.68;;;2.20;;
32734;SDS011;19112;51.076;3.706;2023-04-25T08:24:42;11.55;;;2.35;;
32734;SDS011;19112;51.076;3.706;2023-04-25T08:27:08;14.80;;;2.53;;
32734;SDS011;19112;51.076;3.706;2023-04-25T08:29:34;11.05;;;2.38;;
32734;SDS011;19112;51.076;3.706;2023-04-25T08:32:00;17.10;;;2.60;;
32734;SDS011;19112;51.076;3.706;2023-04-25T08:34:26;15.55;;;2.35;;
32734;SDS011;19112;51.076;3.706;2023-04-25T08:36:52;10.80;;;2.17;;
32734;SDS011;19112;51.076;3.706;2023-04-25T08:39:18;8.05;;;2.35;;
32734;SDS011;19112;51.076;3.706;2023-04-25T08:41:44;10.20;;;1.90;;
32734;SDS011;19112;51.076;3.706;2023-04-25T08:44:10;13.48;;;2.25;;
32734;SDS011;19112;51.076;3.706;2023-04-25T08:46:39;12.00;;;2.03;;
32734;SDS011;19112;51.076;3.706;2023-04-25T08:49:06;14.38;;;2.47;;
32734;SDS011;19112;51.076;3.706;2023-04-25T08:51:34;9.75;;;1.77;;
32734;SDS011;19112;51.076;3.706;2023-04-25T08:54:09;7.38;;;2.10;;
32734;SDS011;19112;51.076;3.706;2023-04-25T08:56:44;8.68;;;2.00;;
32734;SDS011;19112;51.076;3.706;2023-04-25T08:59:12;9.23;;;1.80;;
32734;SDS011;19112;51.076;3.706;2023-04-25T09:01:39;9.88;;;1.85;;
32734;SDS011;19112;51.076;3.706;2023-04-25T09:04:06;14.50;;;2.30;;
32734;SDS011;19112;51.076;3.706;2023-04-25T09:06:32;11.57;;;2.30;;
32734;SDS011;19112;51.076;3.706;2023-04-25T09:09:06;15.75;;;2.63;;
32734;SDS011;19112;51.076;3.706;2023-04-25T09:11:34;18.52;;;2.28;;
32734;SDS011;19112;51.076;3.706;2023-04-25T09:14:11;16.65;;;2.55;;
32734;SDS011;19112;51.076;3.706;2023-04-25T09:19:22;9.93;;;2.35;;
32734;SDS011;19112;51.076;3.706;2023-04-25T09:21:54;13.38;;;3.60;;
32734;SDS011;19112;51.076;3.706;2023-04-25T09:27:09;8.25;;;2.50;;
32734;SDS011;19112;51.076;3.706;2023-04-25T09:29:38;10.50;;;2.60;;
32734;SDS011;19112;51.076;3.706;2023-04-25T09:34:49;8.05;;;2.22;;
32734;SDS011;19112;51.076;3.706;2023-04-25T09:37:23;14.10;;;2.47;;
32734;SDS011;19112;51.076;3.706;2023-04-25T09:39:55;12.50;;;1.95;;
32734;SDS011;19112;51.076;3.706;2023-04-25T09:42:27;8.13;;;1.83;;
32734;SDS011;19112;51.076;3.706;2023-04-25T09:44:56;6.43;;;2.08;;
32734;SDS011;19112;51.076;3.706;2023-04-25T09:47:24;14.25;;;2.38;;
32734;SDS011;19112;51.076;3.706;2023-04-25T09:49:52;8.02;;;2.17;;
32734;SDS011;19112;51.076;3.706;2023-04-25T09:52:22;13.43;;;2.40;;
32734;SDS011;19112;51.076;3.706;2023-04-25T09:54:50;10.77;;;2.10;;
32734;SDS011;19112;51.076;3.706;2023-04-25T09:57:17;6.63;;;1.85;;
32734;SDS011;19112;51.076;3.706;2023-04-25T09:59:51;13.30;;;2.15;;
32734;SDS011;19112;51.076;3.706;2023-04-25T10:02:19;5.65;;;1.60;;
32734;SDS011;19112;51.076;3.706;2023-04-25T10:04:51;9.52;;;2.35;;
32734;SDS011;19112;51.076;3.706;2023-04-25T10:07:20;10.00;;;2.00;;
32734;SDS011;19112;51.076;3.706;2023-04-25T10:10:02;13.00;;;2.30;;
32734;SDS011;19112;51.076;3.706;2023-04-25T10:12:30;9.25;;;2.05;;
32734;SDS011;19112;51.076;3.706;2023-04-25T10:14:58;9.93;;;2.05;;
32734;SDS011;19112;51.076;3.706;2023-04-25T10:17:28;11.55;;;2.13;;
32734;SDS011;19112;51.076;3.706;2023-04-25T10:19:54;18.17;;;2.25;;
32734;SDS011;19112;51.076;3.706;2023-04-25T10:22:37;5.55;;;1.85;;
32734;SDS011;19112;51.076;3.706;2023-04-25T10:25:09;15.38;;;2.17;;
32734;SDS011;19112;51.076;3.706;2023-04-25T10:27:36;9.85;;;2.08;;
32734;SDS011;19112;51.076;3.706;2023-04-25T10:30:09;12.95;;;2.25;;
32734;SDS011;19112;51.076;3.706;2023-04-25T10:32:43;10.65;;;2.55;;
32734;SDS011;19112;51.076;3.706;2023-04-25T10:35:16;13.00;;;2.65;;
32734;SDS011;19112;51.076;3.706;2023-04-25T10:38:00;13.35;;;2.25;;
32734;SDS011;19112;51.076;3.706;2023-04-25T10:40:29;10.27;;;2.30;;
32734;SDS011;19112;51.076;3.706;2023-04-25T10:43:33;16.88;;;2.10;;
32734;SDS011;19112;51.076;3.706;2023-04-25T10:48:58;10.55;;;2.17;;
32734;SDS011;19112;51.076;3.706;2023-04-25T10:51:29;12.48;;;2.30;;
32734;SDS011;19112;51.076;3.706;2023-04-25T10:56:29;11.57;;;2.05;;
32734;SDS011;19112;51.076;3.706;2023-04-25T10:59:13;11.57;;;2.05;;
32734;SDS011;19112;51.076;3.706;2023-04-25T11:01:44;12.85;;;1.63;;
32734;SDS011;19112;51.076;3.706;2023-04-25T11:04:36;11.70;;;1.75;;
32734;SDS011;19112;51.076;3.706;2023-04-25T11:09:35;5.72;;;1.58;;
32734;SDS011;19112;51.076;3.706;2023-04-25T11:12:06;10.77;;;2.10;;
32734;SDS011;19112;51.076;3.706;2023-04-25T11:14:33;14.02;;;1.92;;
32734;SDS011;19112;51.076;3.706;2023-04-25T11:17:00;12.85;;;1.90;;
32734;SDS011;19112;51.076;3.706;2023-04-25T11:19:29;12.63;;;2.20;;
32734;SDS011;19112;51.076;3.706;2023-04-25T11:21:55;5.25;;;1.48;;
32734;SDS011;19112;51.076;3.706;2023-04-25T11:24:31;10.10;;;1.70;;
32734;SDS011;19112;51.076;3.706;2023-04-25T11:27:02;8.93;;;1.70;;
32734;SDS011;19112;51.076;3.706;2023-04-25T11:29:31;8.98;;;1.42;;
32734;SDS011;19112;51.076;3.706;2023-04-25T11:31:59;8.95;;;1.65;;
32734;SDS011;19112;51.076;3.706;2023-04-25T11:34:26;8.25;;;1.85;;
32734;SDS011;19112;51.076;3.706;2023-04-25T11:36:55;9.25;;;3.58;;
32734;SDS011;19112;51.076;3.706;2023-04-25T11:39:23;12.38;;;2.45;;
32734;SDS011;19112;51.076;3.706;2023-04-25T11:41:50;12.80;;;2.42;;
32734;SDS011;19112;51.076;3.706;2023-04-25T11:44:16;9.75;;;2.17;;
32734;SDS011;19112;51.076;3.706;2023-04-25T11:46:44;9.73;;;2.05;;
32734;SDS011;19112;51.076;3.706;2023-04-25T11:49:11;12.68;;;1.98;;
32734;SDS011;19112;51.076;3.706;2023-04-25T11:51:39;8.63;;;2.38;;
32734;SDS011;19112;51.076;3.706;2023-04-25T11:54:09;10.13;;;1.70;;
32734;SDS011;19112;51.076;3.706;2023-04-25T11:56:36;12.38;;;2.70;;
32734;SDS011;19112;51.076;3.706;2023-04-25T11:59:06;9.05;;;1.95;;
32734;SDS011;19112;51.076;3.706;2023-04-25T12:01:33;7.13;;;1.60;;
32734;SDS011;19112;51.076;3.706;2023-04-25T12:04:15;7.15;;;1.75;;
32734;SDS011;19112;51.076;3.706;2023-04-25T12:06:52;13.45;;;2.40;;
32734;SDS011;19112;51.076;3.706;2023-04-25T12:09:30;19.80;;;2.15;;
32734;SDS011;19112;51.076;3.706;2023-04-25T12:11:58;11.00;;;2.30;;
32734;SDS011;19112;51.076;3.706;2023-04-25T12:14:30;22.48;;;2.95;;
32734;SDS011;19112;51.076;3.706;2023-04-25T12:16:58;10.32;;;2.10;;
32734;SDS011;19112;51.076;3.706;2023-04-25T12:19:31;17.55;;;3.08;;
32734;SDS011;19112;51.076;3.706;2023-04-25T12:22:02;8.90;;;2.83;;
32734;SDS011;19112;51.076;3.706;2023-04-25T12:24:36;11.75;;;2.22;;
32734;SDS011;19112;51.076;3.706;2023-04-25T12:27:03;11.02;;;1.95;;
32734;SDS011;19112;51.076;3.706;2023-04-25T12:29:31;8.93;;;1.88;;
32734;SDS011;19112;51.076;3.706;2023-04-25T12:31:59;7.85;;;1.90;;
32734;SDS011;19112;51.076;3.706;2023-04-25T12:34:26;8.52;;;1.85;;
32734;SDS011;19112;51.076;3.706;2023-04-25T12:36:53;11.80;;;2.25;;
32734;SDS011;19112;51.076;3.706;2023-04-25T12:39:23;13.13;;;2.63;;
32734;SDS011;19112;51.076;3.706;2023-04-25T12:41:51;9.90;;;1.90;;
32734;SDS011;19112;51.076;3.706;2023-04-25T12:44:19;11.85;;;3.72;;
32734;SDS011;19112;51.076;3.706;2023-04-25T12:46:46;10.55;;;2.40;;
32734;SDS011;19112;51.076;3.706;2023-04-25T12:49:13;14.18;;;2.55;;
32734;SDS011;19112;51.076;3.706;2023-04-25T12:51:39;13.10;;;2.70;;
32734;SDS011;19112;51.076;3.706;2023-04-25T12:54:06;16.60;;;2.35;;
32734;SDS011;19112;51.076;3.706;2023-04-25T12:56:33;16.83;;;2.67;;
32734;SDS011;19112;51.076;3.706;2023-04-25T12:59:00;10.68;;;2.17;;
32734;SDS011;19112;51.076;3.706;2023-04-25T13:01:27;11.98;;;2.25;;
32734;SDS011;19112;51.076;3.706;2023-04-25T13:03:54;9.68;;;2.75;;
32734;SDS011;19112;51.076;3.706;2023-04-25T13:06:21;11.88;;;2.38;;
32734;SDS011;19112;51.076;3.706;2023-04-25T13:08:47;10.63;;;2.70;;
32734;SDS011;19112;51.076;3.706;2023-04-25T13:11:13;11.25;;;2.50;;
32734;SDS011;19112;51.076;3.706;2023-04-25T13:13:40;12.70;;;2.85;;
32734;SDS011;19112;51.076;3.706;2023-04-25T13:16:06;14.25;;;3.03;;
32734;SDS011;19112;51.076;3.706;2023-04-25T13:18:33;9.57;;;3.03;;
32734;SDS011;19112;51.076;3.706;2023-04-25T13:21:00;9.20;;;2.30;;
32734;SDS011;19112;51.076;3.706;2023-04-25T13:23:26;14.38;;;2.33;;
32734;SDS011;19112;51.076;3.706;2023-04-25T13:25:54;13.38;;;3.58;;
32734;SDS011;19112;51.076;3.706;2023-04-25T13:28:22;17.02;;;2.78;;
32734;SDS011;19112;51.076;3.706;2023-04-25T13:30:52;11.35;;;2.47;;
32734;SDS011;19112;51.076;3.706;2023-04-25T13:33:19;16.50;;;3.13;;
32734;SDS011;19112;51.076;3.706;2023-04-25T13:35:45;14.82;;;2.40;;
32734;SDS011;19112;51.076;3.706;2023-04-25T13:38:23;14.55;;;2.45;;
32734;SDS011;19112;51.076;3.706;2023-04-25T13:40:50;13.10;;;2.28;;
32734;SDS011;19112;51.076;3.706;2023-04-25T13:43:20;14.73;;;2.15;;
32734;SDS011;19112;51.076;3.706;2023-04-25T13:45:47;9.07;;;2.33;;
32734;SDS011;19112;51.076;3.706;2023-04-25T13:48:16;15.60;;;2.45;;
32734;SDS011;19112;51.076;3.706;2023-04-25T13:50:43;8.13;;;2.42;;
32734;SDS011;19112;51.076;3.706;2023-04-25T13:53:10;14.23;;;2.42;;
32734;SDS011;19112;51.076;3.706;2023-04-25T13:55:35;6.65;;;2.30;;
32734;SDS011;19112;51.076;3.706;2023-04-25T13:58:02;11.07;;;2.22;;
32734;SDS011;19112;51.076;3.706;2023-04-25T14:00:33;10.50;;;2.40;;
32734;SDS011;19112;51.076;3.706;2023-04-25T14:03:03;14.52;;;2.20;;
32734;SDS011;19112;51.076;3.706;2023-04-25T14:05:32;9.25;;;2.42;;
32734;SDS011;19112;51.076;3.706;2023-04-25T14:08:03;8.90;;;2.97;;
32734;SDS011;19112;51.076;3.706;2023-04-25T14:10:34;11.15;;;2.20;;
32734;SDS011;19112;51.076;3.706;2023-04-25T14:13:01;9.02;;;2.20;;
32734;SDS011;19112;51.076;3.706;2023-04-25T14:15:28;11.30;;;3.58;;
32734;SDS011;19112;51.076;3.706;2023-04-25T14:17:56;12.27;;;2.30;;
32734;SDS011;19112;51.076;3.706;2023-04-25T14:20:22;11.82;;;2.40;;
32734;SDS011;19112;51.076;3.706;2023-04-25T14:22:48;5.75;;;1.40;;
32734;SDS011;19112;51.076;3.706;2023-04-25T14:25:14;10.70;;;2.00;;
32734;SDS011;19112;51.076;3.706;2023-04-25T14:27:40;9.25;;;1.80;;
32734;SDS011;19112;51.076;3.706;2023-04-25T14:30:06;10.18;;;1.85;;
32734;SDS011;19112;51.076;3.706;2023-04-25T14:32:34;8.98;;;1.75;;
32734;SDS011;19112;51.076;3.706;2023-04-25T14:35:00;13.30;;;1.88;;
32734;SDS011;19112;51.076;3.706;2023-04-25T14:37:26;8.40;;;1.90;;
32734;SDS011;19112;51.076;3.706;2023-04-25T14:39:52;8.35;;;1.88;;
32734;SDS011;19112;51.076;3.706;2023-04-25T14:42:17;8.05;;;2.00;;
32734;SDS011;19112;51.076;3.706;2023-04-25T14:44:43;8.55;;;2.28;;
32734;SDS011;19112;51.076;3.706;2023-04-25T14:47:10;5.30;;;1.73;;
32734;SDS011;19112;51.076;3.706;2023-04-25T14:49:35;13.07;;;2.30;;
32734;SDS011;19112;51.076;3.706;2023-04-25T14:52:01;10.75;;;2.00;;
32734;SDS011;19112;51.076;3.706;2023-04-25T14:54:28;13.40;;;2.05;;
32734;SDS011;19112;51.076;3.706;2023-04-25T14:56:53;4.93;;;1.90;;
32734;SDS011;19112;51.076;3.706;2023-04-25T14:59:19;6.72;;;2.25;;